This is the latest recevied weather packets stored in our database for station/object GW1482. If no packets are shown the sender has not sent any weather packets the latest 10 day(s).
| Time | Temp. | Humidity | Pressure | Rain* | Wind** | Luminosity | Snow |
|---|---|---|---|---|---|---|---|
| 1777649615 | 12.22° C | 61% | 998.6 hPa | 0 mm | - | - | - |
| 1777648171 | 11.11° C | 50% | 998.3 hPa | 0 mm | - | - | - |
| 1777646744 | 10° C | 56% | 998.6 hPa | 0 mm | - | - | - |
| 1777640613 | 4.44° C | 99% | 999.6 hPa | 0 mm | - | - | - |
| 1777613961 | 1.67° C | 99% | 1000.6 hPa | 0 mm | - | - | - |
| 1777607483 | 3.33° C | 99% | 1001.3 hPa | 0.25 mm | - | - | - |
| 1777597785 | 5.56° C | 99% | 1000.6 hPa | 0.25 mm | - | - | - |
| 1777593794 | 6.11° C | 98% | 1000 hPa | 0.25 mm | - | - | - |
| 1777593442 | 6.11° C | 98% | 1000 hPa | 0.25 mm | - | - | - |
| 1777593078 | 6.67° C | 98% | 1000 hPa | 0.25 mm | - | - | - |
| 1777592017 | 6.67° C | 98% | 999.6 hPa | 0.25 mm | - | - | - |
| 1777588785 | 7.78° C | 84% | 1000 hPa | 0 mm | - | - | - |
| 1777586613 | 8.89° C | 80% | 999.6 hPa | 0 mm | - | - | - |
| 1777586269 | 8.89° C | 78% | 999.6 hPa | 0 mm | - | - | - |
| 1777584813 | 10° C | 70% | 998.9 hPa | 0 mm | - | - | - |
| 1777577591 | 11.11° C | 60% | 998.9 hPa | 0 mm | - | - | - |
| 1777576913 | 10° C | 61% | 998.9 hPa | 0 mm | - | - | - |
| 1777557798 | 7.78° C | 82% | 998.3 hPa | 0 mm | - | - | - |
| 1777545576 | 7.22° C | 99% | 996.9 hPa | 0 mm | - | - | - |
| 1777542702 | 7.78° C | 98% | 996.6 hPa | 0 mm | - | - | - |
| 1777542345 | 7.78° C | 98% | 996.9 hPa | 0 mm | - | - | - |
| 1777534412 | 8.89° C | 98% | 997.2 hPa | 0 mm | - | - | - |
| 1777515689 | 11.11° C | 99% | 997.9 hPa | 16.51 mm | - | - | - |
| 1777515353 | 11.11° C | 99% | 997.9 hPa | 16.51 mm | - | - | - |
| 1777514958 | 11.11° C | 99% | 997.9 hPa | 16.51 mm | - | - | - |
* Rain since midnight (hover to see other rain measurements)
** Current wind speed in m/s (hover to see current wind gust speed)